PWSweather.com
Personal Weather Stations
Station Observations
WISCHPK61
Green Bay Schmitt Park, Green Bay, WI 54311

Green Bay Schmitt ParkGreen Bay, WI 54311

Lat: 44.514277, Lon: -87.935067

Elevation: 735

Station Type: Acu Rite Pro Weather Center model 02032C

http://greenbayweathercam.com

High Low Average
Temperature 25.7°F-3.5°C 12.0°F-11.1°C 19.1°F-7.2°C
Dew Point 25.5°F-3.6°C 11.8°F-11.2°C 18.9°F-7.3°C
Winds Calm Calm Calm Calm Calm SSWCalm SSW
Wind Gusts -- -- --
Humidity 99% 99% 99%
Pressure 29.65 in1004.1 mb 29.26 in990.9 mb -
Precipitation 0.00 in0.0 mm - -
Hour Temp Dew Point Humidity Winds Wind Gusts Pressure Precip Precip Rate Daily Precip Total
12:00 AM 26.6°F-3.0°C 26.4°F-3.1°C 99% Calm Calm -- 29.19 in988.5 mb - 0.00 in0.0 mm 0.00 in0.0 mm
01:00 AM 25.2°F-3.8°C 25.0°F-3.9°C 99% Calm Calm -- 29.26 in990.9 mb - 0.00 in0.0 mm 0.00 in0.0 mm
02:00 AM 23.4°F-4.8°C 23.2°F-4.9°C 99% Calm Calm -- 29.30 in992.2 mb - 0.00 in0.0 mm 0.00 in0.0 mm
03:00 AM 22.3°F-5.4°C 22.1°F-5.5°C 99% Calm Calm -- 29.36 in994.2 mb - 0.00 in0.0 mm 0.00 in0.0 mm
04:00 AM 21.2°F-6.0°C 21.0°F-6.1°C 99% Calm Calm -- 29.43 in996.6 mb - 0.00 in0.0 mm 0.00 in0.0 mm
05:00 AM 19.4°F-7.0°C 19.2°F-7.1°C 99% Calm Calm -- 29.44 in997.0 mb - 0.00 in0.0 mm 0.00 in0.0 mm
06:00 AM 18.3°F-7.6°C 18.1°F-7.7°C 99% Calm Calm -- 29.48 in998.3 mb - 0.00 in0.0 mm 0.00 in0.0 mm
07:00 AM 17.2°F-8.2°C 17.0°F-8.3°C 99% Calm Calm -- 29.53 in1000.0 mb - 0.00 in0.0 mm 0.00 in0.0 mm
08:00 AM 16.3°F-8.7°C 16.1°F-8.8°C 99% Calm Calm -- 29.54 in1000.3 mb - 0.00 in0.0 mm 0.00 in0.0 mm
09:00 AM 14.9°F-9.5°C 14.7°F-9.6°C 99% Calm Calm -- 29.57 in1001.4 mb - 0.00 in0.0 mm 0.00 in0.0 mm
10:00 AM 16.2°F-8.8°C 16.0°F-8.9°C 99% Calm Calm -- 29.61 in1002.7 mb - 0.00 in0.0 mm 0.00 in0.0 mm
11:00 AM 21.2°F-6.0°C 21.0°F-6.1°C 99% Calm Calm -- 29.64 in1003.7 mb - 0.00 in0.0 mm 0.00 in0.0 mm
12:00 PM 23.7°F-4.6°C 23.5°F-4.7°C 99% Calm Calm -- 29.65 in1004.1 mb - 0.00 in0.0 mm 0.00 in0.0 mm
01:00 PM 24.8°F-4.0°C 24.6°F-4.1°C 99% Calm Calm -- 29.63 in1003.4 mb - 0.00 in0.0 mm 0.00 in0.0 mm
02:00 PM 25.7°F-3.5°C 25.5°F-3.6°C 99% Calm Calm -- 29.61 in1002.7 mb - 0.00 in0.0 mm 0.00 in0.0 mm
03:00 PM 24.6°F-4.1°C 24.3°F-4.3°C 99% Calm Calm -- 29.61 in1002.7 mb - 0.00 in0.0 mm 0.00 in0.0 mm
04:00 PM 21.8°F-5.7°C 21.6°F-5.8°C 99% Calm Calm -- 29.62 in1003.0 mb - 0.00 in0.0 mm 0.00 in0.0 mm
05:00 PM 20.4°F-6.4°C 20.2°F-6.6°C 99% Calm Calm -- 29.61 in1002.7 mb - 0.00 in0.0 mm 0.00 in0.0 mm
06:00 PM 18.1°F-7.7°C 17.9°F-7.8°C 99% Calm Calm -- 29.63 in1003.4 mb - 0.00 in0.0 mm 0.00 in0.0 mm
07:00 PM 17.1°F-8.3°C 16.9°F-8.4°C 99% Calm Calm -- 29.65 in1004.1 mb - 0.00 in0.0 mm 0.00 in0.0 mm
08:00 PM 15.7°F-9.1°C 15.5°F-9.2°C 99% Calm Calm -- 29.63 in1003.4 mb - 0.00 in0.0 mm 0.00 in0.0 mm
09:00 PM 13.8°F-10.1°C 13.6°F-10.2°C 99% Calm Calm -- 29.62 in1003.0 mb - 0.00 in0.0 mm 0.00 in0.0 mm
10:00 PM 13.1°F-10.5°C 12.9°F-10.6°C 99% Calm Calm -- 29.60 in1002.4 mb - 0.00 in0.0 mm 0.00 in0.0 mm
11:00 PM 12.6°F-10.8°C 12.4°F-10.9°C 99% Calm Calm -- 29.58 in1001.7 mb - 0.00 in0.0 mm 0.00 in0.0 mm